Latest Weather Observations for Cooma Airport

IDN60801

Issued at 11:35 pm EDT Monday 20 October 2014 (issued every 30 minutes, with the page automatically refreshed every 10 minutes)

About weather observations | Map of weather stations | Latest weather observations for NSW | Other Formats
Station Details ID: 070217 Name: COOMA AIRPORT AWS Lat: -36.29 Lon: 148.97 Height: 930.0 m
Data from the previous 72 hours. | See also: Recent months for locations in New South Wales
Date/Time
EDT
Temp
°C
App
Temp
°C
Dew
Point
Rel
Hum
%
Delta-T
°C
Wind Press
QNH
hPa
Press
MSL
hPa
Rain
since 9 am
mm
Dir
 
Spd
km/h
Gust
km/h
Spd
kts
Gust
kts
20/11:30pm 7.0 3.3 6.3 95 0.3 NE 15 17 8 9 1032.0 1031.2 0.0
20/11:00pm 7.0 2.4 5.8 92 0.6 ENE 19 22 10 12 1032.1 1031.3 0.0
20/10:30pm 7.1 2.3 5.7 91 0.7 NE 20 24 11 13 1032.0 1031.2 0.0
20/10:10pm 7.1 1.9 5.6 90 0.7 NE 22 28 12 15 1032.1 1031.3 0.0
20/10:00pm 7.2 2.1 5.8 91 0.7 NE 22 28 12 15 1032.1 1031.3 0.0
20/09:30pm 7.2 1.3 6.0 92 0.6 NE 26 32 14 17 1032.0 1031.2 0.0
20/09:00pm 7.3 1.8 5.9 91 0.7 NNE 24 30 13 16 1031.9 1031.1 0.0
20/08:38pm 7.4 1.9 5.7 89 0.8 NE 24 28 13 15 1031.6 1030.8 0.0
20/08:30pm 7.6 2.1 5.9 89 0.8 NE 24 30 13 16 1031.5 1030.7 0.0
20/08:00pm 7.8 1.9 5.9 88 0.9 NE 26 32 14 17 1031.2 1030.4 0.0
20/07:30pm 8.3 3.3 6.6 89 0.8 ENE 22 28 12 15 1031.0 1030.2 0.0
20/07:10pm 8.5 3.5 6.5 87 1.0 ENE 22 28 12 15 1030.7 1029.8 0.0
20/07:00pm 8.7 3.3 6.5 86 1.1 ENE 24 28 13 15 1030.7 1029.8 0.0
20/06:48pm 8.9 3.9 6.5 85 1.2 NE 22 28 12 15 1030.6 1029.7 0.0
20/06:30pm 9.0 4.0 6.4 84 1.3 NE 22 28 12 15 1030.3 1029.5 0.0
20/06:00pm 9.2 3.5 6.5 83 1.3 ENE 26 32 14 17 1030.2 1029.4 0.0
20/05:30pm 9.6 3.9 6.7 82 1.4 ENE 26 32 14 17 1030.1 1029.3 0.0
20/05:00pm 9.9 4.6 6.8 81 1.5 ENE 24 30 13 16 1030.0 1029.2 0.0
20/04:30pm 10.4 5.4 6.5 77 1.9 NE 22 28 12 15 1029.8 1028.9 0.0
20/04:00pm 10.6 5.2 6.4 75 2.1 NE 24 28 13 15 1029.9 1029.1 0.0
20/03:30pm 11.4 6.7 6.1 70 2.6 ENE 20 24 11 13 1029.7 1028.8 0.0
20/03:00pm 12.6 10.2 7.1 69 2.8 E 9 15 5 8 1029.7 1028.8 0.0
20/02:30pm 12.2 9.3 6.5 68 2.9 SSW 11 15 6 8 1029.9 1029.1 0.0
20/02:00pm 11.6 8.7 6.7 72 2.4 S 11 15 6 8 1030.2 1029.4 0.0
20/01:30pm 10.8 7.4 5.8 71 2.4 S 13 19 7 10 1030.4 1029.6 0.0
20/01:00pm 10.7 6.6 6.3 74 2.2 S 17 22 9 12 1030.6 1029.7 0.0
20/12:30pm 10.6 7.3 6.2 74 2.2 S 13 22 7 12 1030.8 1030.0 0.0
20/12:00pm 10.7 7.1 6.6 76 2.0 S 15 20 8 11 1031.0 1030.2 0.0
20/11:30am 9.8 6.3 5.6 75 2.0 S 13 20 7 11 1031.3 1030.5 0.0
20/11:02am 9.0 5.7 4.8 75 2.0 S 11 17 6 9 1031.4 1030.6 0.0
20/11:00am 9.1 6.0 5.5 78 1.7 S 11 17 6 9 1031.4 1030.6 0.0
20/10:30am 8.5 5.0 5.6 82 1.4 S 13 19 7 10 1031.4 1030.6 0.0
20/10:00am 8.2 4.8 5.7 84 1.2 S 13 20 7 11 1031.3 1030.5 0.0
20/09:30am 7.6 3.6 5.1 84 1.2 S 15 20 8 11 1031.1 1030.3 0.0
20/09:00am 7.1 2.3 4.9 86 1.0 S 19 24 10 13 1030.8 1030.0 0.0
20/08:30am 6.6 2.3 5.2 91 0.7 S 17 24 9 13 1030.3 1029.5 0.0
20/08:01am 6.2 1.7 5.9 98 0.1 S 19 24 10 13 1029.9 1029.1 0.0
20/08:00am 6.1 1.5 5.8 98 0.1 S 19 24 10 13 1029.9 1029.1 0.0
20/07:30am 6.3 1.2 6.2 99 0.0 S 22 26 12 14 1029.4 1028.5 0.0
20/07:10am 6.5 1.9 6.4 99 0.0 S 20 26 11 14 1029.0 1028.2 0.0
20/07:00am 6.4 1.4 6.3 99 0.0 S 22 28 12 15 1028.9 1028.1 0.0
20/06:38am 6.5 1.1 6.4 99 0.0 S 24 30 13 16 1028.6 1027.7 0.0
20/06:30am 6.6 0.9 6.5 99 0.0 S 26 32 14 17 1028.4 1027.5 0.0
20/06:25am 6.7 0.6 6.6 99 0.0 S 28 33 15 18 1028.3 1027.4 0.0
20/06:07am 7.4 2.1 6.8 96 0.3 S 24 33 13 18 1027.9 1027.0 0.0
20/06:00am 7.6 1.6 7.0 96 0.3 S 28 32 15 17 1027.8 1026.9 0.0
20/05:30am 8.6 3.5 7.7 94 0.5 SSW 24 32 13 17 1027.3 1026.4 0.0
20/05:03am 9.1 3.7 8.2 94 0.5 SSW 26 32 14 17 1026.9 1026.0 0.0
20/05:00am 9.1 3.8 8.3 95 0.4 S 26 32 14 17 1026.9 1026.0 0.0
20/04:30am 9.2 3.5 8.4 95 0.4 S 28 37 15 20 1026.4 1025.5 0.0
20/04:00am 9.5 3.6 9.0 97 0.3 SSW 30 37 16 20 1026.1 1025.1 0.0
20/03:30am 9.4 4.3 9.1 98 0.2 S 26 35 14 19 1025.7 1024.8 0.0
20/03:29am 9.3 4.1 9.0 98 0.2 SSW 26 33 14 18 1025.8 1024.9 0.0
20/03:00am 9.6 3.4 8.0 90 0.8 SSW 30 39 16 21 1025.5 1024.6 0.0
20/02:30am 10.3 5.7 6.5 77 1.9 SW 20 24 11 13 1024.6 1023.7 0.0
20/02:00am 12.1 10.0 5.7 65 3.1 N 6 13 3 7 1024.2 1023.3 0.0
20/01:30am 13.7 11.0 5.8 59 3.9 E 9 11 5 6 1024.6 1023.7 0.0
20/01:00am 14.4 10.9 5.5 55 4.4 NW 13 17 7 9 1024.9 1023.9 0.0
20/12:30am 11.4 9.2 6.1 70 2.6 NE 7 9 4 5 1025.1 1024.1 0.0
20/12:00am 12.9 10.3 6.0 63 3.4 NE 9 15 5 8 1025.4 1024.5 0.0
 
Date/Time
EDT
Temp
°C
App
Temp
°C
Dew
Point
Rel
Hum
%
Delta-T
°C
Wind Press
QNH
hPa
Press
MSL
hPa
Rain
since 9 am
mm
Dir
 
Spd
km/h
Gust
km/h
Spd
kts
Gust
kts
19/11:30pm 12.5 11.8 6.8 68 2.9 CALM 0 0 0 0 1025.5 1024.6 0.0
19/11:00pm 12.6 11.4 6.4 66 3.1 NNE 2 7 1 4 1025.7 1024.8 0.0
19/10:30pm 12.7 10.7 7.0 68 2.9 NE 7 9 4 5 1025.6 1024.7 0.0
19/10:00pm 13.4 11.7 5.8 60 3.8 NNE 4 9 2 5 1026.0 1025.0 0.0
19/09:30pm 15.2 13.4 5.4 52 4.9 S 4 13 2 7 1026.1 1025.1 0.0
19/09:00pm 15.0 13.2 5.2 52 4.8 SSE 4 7 2 4 1025.8 1024.9 0.0
19/08:30pm 16.5 13.9 4.2 44 6.1 N 7 15 4 8 1025.2 1024.3 0.0
19/08:00pm 17.6 14.1 3.5 39 6.9 NW 11 17 6 9 1024.8 1023.8 0.0
19/07:30pm 18.1 14.1 4.7 41 6.7 NW 15 20 8 11 1024.4 1023.5 0.0
19/07:00pm 19.1 14.3 4.8 39 7.2 NNW 19 24 10 13 1023.8 1022.8 0.0
19/06:30pm 20.0 15.2 4.5 36 7.9 NNW 19 22 10 12 1023.3 1022.4 0.0
19/06:00pm 21.1 16.8 5.1 35 8.2 NNW 17 22 9 12 1023.2 1022.2 0.0
19/05:30pm 21.9 18.0 5.3 34 8.7 NW 15 20 8 11 1023.3 1022.4 0.0
19/05:00pm 22.3 19.4 6.5 36 8.4 NW 11 15 6 8 1023.1 1022.1 0.0
19/04:30pm 22.9 20.0 6.6 35 8.7 NW 11 19 6 10 1023.0 1022.0 0.0
19/04:00pm 23.1 20.9 8.0 38 8.3 NNW 9 17 5 9 1023.2 1022.2 0.0
19/03:30pm 23.2 19.4 5.6 32 9.3 W 15 20 8 11 1023.6 1022.6 0.0
19/03:00pm 24.3 19.4 4.1 27 10.4 WNW 19 26 10 14 1023.8 1022.8 0.0
19/02:30pm 23.9 19.1 7.5 35 9.0 W 22 32 12 17 1024.1 1023.1 0.0
19/02:00pm 23.9 19.4 6.2 32 9.4 W 19 26 10 14 1024.4 1023.5 0.0
19/01:30pm 23.4 19.2 5.8 32 9.3 W 17 22 9 12 1024.6 1023.7 0.0
19/01:00pm 23.9 19.0 6.7 33 9.3 SW 22 32 12 17 1024.5 1023.6 0.0
19/12:30pm 23.1 21.2 10.5 45 7.2 E 11 15 6 8 1024.8 1023.8 0.0
19/12:00pm 20.7 17.3 9.0 47 6.5 NE 17 19 9 10 1025.0 1024.0 0.0
19/11:30am 21.0 17.1 8.6 45 6.8 NE 19 22 10 12 1025.6 1024.7 0.0
19/11:00am 20.1 15.9 7.5 44 6.7 NE 19 26 10 14 1025.8 1024.9 0.0
19/10:30am 19.3 15.0 7.1 45 6.5 NE 19 20 10 11 1026.2 1025.3 0.0
19/10:00am 17.6 13.1 6.2 47 5.9 NE 19 22 10 12 1026.4 1025.5 0.0
19/09:30am 15.6 12.0 6.9 56 4.5 NE 15 19 8 10 1026.8 1025.9 0.0
19/09:00am 13.9 9.8 7.9 67 3.1 NE 19 20 10 11 1026.9 1026.0 0.0
19/08:30am 11.4 7.4 6.5 72 2.4 NE 17 20 9 11 1026.8 1025.9 0.0
19/08:00am 10.1 5.9 5.9 75 2.0 NE 17 19 9 10 1027.1 1026.2 0.0
19/07:30am 8.7 5.8 6.5 86 1.1 NNE 11 15 6 8 1027.1 1026.2 0.0
19/07:00am 7.3 4.7 5.9 91 0.7 N 9 13 5 7 1026.8 1025.9 0.0
19/06:30am 4.2 0.9 2.7 90 0.6 N 9 11 5 6 1026.4 1025.5 0.0
19/06:00am 5.3 2.3 4.1 92 0.5 N 9 11 5 6 1026.3 1025.4 0.0
19/05:30am 6.2 3.3 4.7 90 0.7 N 9 11 5 6 1026.2 1025.3 0.0
19/05:00am 6.2 3.3 4.7 90 0.7 NNE 9 9 5 5 1025.7 1024.8 0.0
19/04:30am 6.9 4.2 5.7 92 0.6 N 9 11 5 6 1025.8 1024.9 0.0
19/04:00am 6.3 3.6 5.7 96 0.3 N 9 11 5 6 1025.8 1024.9 0.0
19/03:30am 4.6 1.4 3.3 91 0.6 N 9 9 5 5 1026.0 1025.0 0.0
19/03:00am 6.1 3.2 4.4 89 0.8 N 9 11 5 6 1026.2 1025.3 0.0
19/02:30am 7.4 4.2 5.2 86 1.0 N 11 13 6 7 1026.2 1025.3 0.0
19/02:00am 6.8 3.9 4.6 86 1.0 NNE 9 11 5 6 1026.5 1025.6 0.0
19/01:30am 8.1 5.0 5.6 84 1.2 NNE 11 13 6 7 1026.5 1025.6 0.0
19/01:00am 8.1 5.2 6.4 89 0.8 N 11 13 6 7 1026.9 1026.0 0.0
19/12:30am 7.4 4.4 6.0 91 0.7 ENE 11 15 6 8 1026.7 1025.8 0.0
19/12:00am 8.2 6.7 6.8 91 0.7 NNE 4 9 2 5 1026.8 1025.9 0.0
 
Date/Time
EDT
Temp
°C
App
Temp
°C
Dew
Point
Rel
Hum
%
Delta-T
°C
Wind Press
QNH
hPa
Press
MSL
hPa
Rain
since 9 am
mm
Dir
 
Spd
km/h
Gust
km/h
Spd
kts
Gust
kts
18/11:30pm 7.4 3.9 5.5 88 0.9 NE 13 17 7 9 1026.8 1025.9 0.0
18/11:00pm 8.6 5.5 7.2 91 0.7 NE 13 15 7 8 1026.9 1026.0 0.0
18/10:30pm 7.7 4.3 5.8 88 0.9 NNE 13 15 7 8 1027.1 1026.2 0.0
18/10:00pm 8.1 5.4 5.7 85 1.1 NE 9 11 5 6 1027.4 1026.5 0.0
18/09:30pm 8.3 6.0 4.9 79 1.6 N 6 9 3 5 1027.6 1026.7 0.0
18/09:00pm 8.3 6.0 4.9 79 1.6 ENE 6 11 3 6 1027.1 1026.2 0.0
18/08:30pm 9.3 8.4 5.9 79 1.6 CALM 0 0 0 0 1026.7 1025.8 0.0
18/08:00pm 10.9 10.0 6.1 72 2.3 CALM 0 0 0 0 1026.4 1025.5 0.0
18/07:30pm 12.2 11.2 5.8 65 3.2 CALM 0 0 0 0 1026.2 1025.3 0.0
18/07:00pm 15.0 13.1 6.8 58 4.2 S 6 7 3 4 1026.0 1025.0 0.0
18/06:30pm 17.3 14.8 3.9 41 6.6 E 6 7 3 4 1025.6 1024.7 0.0
18/06:00pm 17.2 14.4 3.1 39 6.8 ESE 7 9 4 5 1025.4 1024.5 0.0
18/05:30pm 17.6 14.3 2.4 36 7.3 S 9 13 5 7 1025.4 1024.5 0.0
18/05:00pm 18.1 15.4 2.8 36 7.4 E 6 11 3 6 1025.3 1024.4 0.0
18/04:30pm 17.9 14.6 2.2 35 7.5 SE 9 13 5 7 1025.4 1024.5 0.0
18/04:00pm 18.2 16.0 5.1 42 6.6 E 6 9 3 5 1025.5 1024.6 0.0
18/03:30pm 17.8 15.3 4.0 40 6.8 N 6 13 3 7 1025.6 1024.7 0.0
18/03:00pm 18.0 16.1 4.9 42 6.6 SSE 4 9 2 5 1026.0 1025.0 0.0
18/02:30pm 16.8 13.5 2.4 38 6.9 S 9 13 5 7 1026.4 1025.5 0.0
18/02:00pm 16.9 14.2 2.5 38 6.8 SSE 6 13 3 7 1026.8 1025.9 0.0
18/01:30pm 16.6 14.4 6.4 51 5.3 E 7 15 4 8 1026.9 1026.0 0.0
18/01:00pm 15.8 12.7 3.6 44 5.9 E 9 17 5 9 1027.2 1026.3 0.0
18/12:30pm 15.6 12.4 4.9 49 5.3 NE 11 15 6 8 1027.6 1026.7 0.0
18/12:00pm 15.0 11.3 2.2 42 5.9 ENE 11 19 6 10 1027.9 1027.0 0.0
18/11:30am 14.4 10.7 6.5 59 4.0 NE 15 22 8 12 1028.0 1027.2 0.0
18/11:00am 13.6 9.9 6.5 62 3.6 NE 15 20 8 11 1028.4 1027.5 0.0
18/10:30am 12.3 8.7 6.6 68 2.9 NE 15 20 8 11 1028.5 1027.6 0.0
18/10:00am 11.3 7.7 6.6 73 2.3 NE 15 20 8 11 1028.7 1027.8 0.0
18/09:30am 9.9 6.2 6.4 79 1.7 NE 15 19 8 10 1028.9 1028.1 0.0
18/09:00am 8.3 4.6 6.3 87 1.0 NE 15 20 8 11 1028.7 1027.8 0.0
18/08:57am 7.9 4.1 6.0 88 0.9 NE 15 19 8 10 1028.7 1027.8 0.0
18/08:30am 6.1 3.1 6.0 99 0.0 NNE 11 15 6 8 1028.8 1027.9 0.0
18/08:28am 5.8 2.4 5.7 99 0.0 NNE 13 15 7 8 1028.8 1027.9 0.0
18/08:00am 4.6 1.3 4.5 99 0.0 NNE 11 13 6 7 1028.6 1027.7 0.0
18/07:30am 4.0 0.6 3.9 99 0.0 NNE 11 15 6 8 1028.1 1027.3 0.0
18/07:00am 3.6 -0.3 3.5 99 0.0 NNE 13 15 7 8 1027.9 1027.0 0.0
18/06:30am 3.6 -0.3 3.5 99 0.0 NNE 13 15 7 8 1027.7 1026.8 0.0
18/06:00am 3.7 -0.5 3.6 99 0.0 NE 15 17 8 9 1027.2 1026.3 0.0
18/05:31am 3.2 0.0 3.1 99 0.0 NNE 9 13 5 7 1027.1 1026.2 0.0
18/05:30am 3.1 -0.1 3.0 99 0.0 NNE 9 13 5 7 1027.1 1026.2 0.0
18/05:26am 2.8 -0.5 2.7 99 0.0 NNE 9 13 5 7 1027.2 1026.3 0.0
18/05:00am 3.0 -1.4 2.7 98 0.1 NE 15 17 8 9 1027.3 1026.4 0.0
18/04:59am 3.1 -1.3 2.8 98 0.1 NE 15 17 8 9 1027.3 1026.4 0.0
18/04:30am 4.7 0.6 4.1 96 0.3 NNE 15 17 8 9 1026.8 1025.9 0.0
18/04:00am 6.0 2.1 5.3 95 0.3 NNE 15 22 8 12 1026.8 1025.9 0.0
18/03:30am 6.1 2.5 5.2 94 0.4 NNE 13 17 7 9 1026.8 1025.9 0.0
18/03:00am 6.1 2.6 5.5 96 0.3 NNE 13 19 7 10 1026.9 1026.0 0.0
18/02:30am 6.0 2.5 5.6 97 0.2 NNE 13 17 7 9 1026.9 1026.0 0.0
18/02:00am 6.0 2.5 5.4 96 0.3 NNE 13 17 7 9 1027.2 1026.3 0.0
18/01:30am 6.1 1.8 5.4 95 0.3 NNE 17 20 9 11 1027.4 1026.5 0.0
18/01:00am 6.2 1.5 5.3 94 0.4 NNE 19 20 10 11 1027.6 1026.7 0.0
18/12:30am 6.2 1.5 5.3 94 0.4 NE 19 22 10 12 1027.8 1026.9 0.0
18/12:00am 6.2 1.3 5.3 94 0.4 NE 20 24 11 13 1027.9 1027.0 0.0

Other Formats:

Comma delimited format used in spreadsheet applications
http://www.bom.gov.au/fwo/IDN60801/IDN60801.94921.axf

JavaScript Object Notation format (JSON) in row-major order
http://www.bom.gov.au/fwo/IDN60801/IDN60801.94921.json